Time;durP1;ratioP1;P1;durP2;ratioP2;P2;SDS_P1;SDS_P2;PMS_P1;PMS_P2;Temp;Humidity;BMP_temperature;BMP_pressure;BME280_temperature;BME280_humidity;BME280_pressure;Samples;Min_cycle;Max_cycle;Signal;HPM_P1;HPM_P2
2022/11/12 00:00:36;;;;;;;11.50;6.40;;;;;;;10.93;83.00;100129.75;4985002;28;20095;-94
2022/11/12 00:03:02;;;;;;;10.65;6.22;;;;;;;10.86;83.20;100113.88;4985694;28;20047;-94
2022/11/12 00:05:28;;;;;;;10.95;5.78;;;;;;;10.90;82.93;100112.91;4984772;28;20054;-95
2022/11/12 00:07:55;;;;;;;11.93;6.93;;;;;;;10.98;82.35;100117.34;4984323;28;20061;-94
2022/11/12 00:10:22;;;;;;;11.35;6.65;;;;;;;10.97;81.91;100099.56;4985682;28;20058;-94
2022/11/12 00:12:48;;;;;;;11.27;6.22;;;;;;;11.17;80.18;100095.00;4982336;28;20503;-93
2022/11/12 00:15:15;;;;;;;9.82;6.20;;;;;;;11.14;80.41;100095.00;4982111;28;20074;-94
2022/11/12 00:17:41;;;;;;;10.48;5.78;;;;;;;11.28;78.76;100094.91;4981476;28;20050;-94
2022/11/12 00:20:08;;;;;;;9.63;5.40;;;;;;;11.45;77.26;100087.66;4968628;28;20051;-94
2022/11/12 00:22:34;;;;;;;9.13;5.35;;;;;;;11.60;76.58;100102.59;4972054;28;20118;-93
2022/11/12 00:24:59;;;;;;;8.63;5.07;;;;;;;11.62;76.03;100100.78;4977682;28;20065;-95
2022/11/12 00:27:27;;;;;;;9.50;5.40;;;;;;;11.70;76.75;100133.56;4982487;28;20039;-93
2022/11/12 00:29:52;;;;;;;9.00;5.53;;;;;;;11.66;75.97;100114.97;4981740;28;20047;-94
2022/11/12 00:32:19;;;;;;;14.18;6.93;;;;;;;11.50;76.38;100101.78;4981040;28;20105;-92
2022/11/12 00:34:44;;;;;;;10.13;6.20;;;;;;;11.52;77.28;100144.41;4981974;28;20039;-90
2022/11/12 00:37:10;;;;;;;11.57;6.25;;;;;;;11.45;77.08;100140.91;4972594;28;20040;-93
2022/11/12 00:39:36;;;;;;;11.63;6.60;;;;;;;11.27;76.48;100099.31;4980527;28;20118;-94
2022/11/12 00:42:02;;;;;;;10.05;6.22;;;;;;;11.30;76.63;100123.28;4982010;28;20097;-93
2022/11/12 00:44:30;;;;;;;11.07;6.72;;;;;;;11.24;76.10;100118.00;4981315;28;20054;-94
2022/11/12 00:46:56;;;;;;;11.13;6.25;;;;;;;11.37;75.40;100141.88;4982512;28;20464;-92
2022/11/12 00:49:22;;;;;;;9.43;4.97;;;;;;;11.24;74.92;100109.16;4974580;28;20047;-93
2022/11/12 00:51:48;;;;;;;9.35;5.20;;;;;;;11.38;73.27;100101.91;4981996;28;20038;-92
2022/11/12 00:54:14;;;;;;;7.95;4.57;;;;;;;11.60;71.89;100102.59;4981078;28;20039;-94
2022/11/12 00:56:40;;;;;;;8.00;4.55;;;;;;;11.63;71.39;100101.69;4982566;28;20093;-95
2022/11/12 00:59:06;;;;;;;7.20;4.47;;;;;;;11.63;71.01;100096.34;4987109;28;20039;-96
2022/11/12 01:01:33;;;;;;;6.60;4.13;;;;;;;11.67;70.44;100098.97;4984681;28;20047;-95
2022/11/12 01:04:00;;;;;;;8.10;4.72;;;;;;;11.62;71.08;100094.56;4974871;28;20090;-94
2022/11/12 01:06:26;;;;;;;6.38;3.90;;;;;;;11.57;71.01;100091.09;4968603;28;20051;-94
2022/11/12 01:08:53;;;;;;;7.60;4.60;;;;;;;11.68;70.70;100110.50;4980483;28;20299;-92
2022/11/12 01:11:21;;;;;;;6.53;4.28;;;;;;;11.65;69.76;100090.09;4983807;28;20074;-92
2022/11/12 01:13:53;;;;;;;8.48;3.90;;;;;;;11.95;68.31;100097.81;4981663;28;20070;-91
2022/11/12 01:16:21;;;;;;;6.55;3.40;;;;;;;11.87;68.15;100092.53;4972448;28;20046;-93
2022/11/12 01:18:52;;;;;;;6.72;3.92;;;;;;;12.04;67.53;100103.06;4978323;28;20038;-96
2022/11/12 01:21:17;;;;;;;6.45;3.78;;;;;;;12.21;66.06;100106.41;4978134;28;20047;-92
2022/11/12 01:23:43;;;;;;;7.57;3.47;;;;;;;12.09;66.32;100075.41;4975254;28;20106;-93
2022/11/12 01:26:11;;;;;;;5.90;3.65;;;;;;;11.99;66.71;100073.78;4974770;28;20066;-91
2022/11/12 01:28:37;;;;;;;6.35;3.60;;;;;;;11.89;66.54;100075.66;4978176;28;20047;-95
2022/11/12 01:31:14;;;;;;;8.05;3.35;;;;;;;11.86;66.65;100074.78;4982681;28;20105;-96
2022/11/12 01:33:40;;;;;;;6.05;3.60;;;;;;;11.78;66.69;100071.34;4983001;28;20122;-95
2022/11/12 01:36:08;;;;;;;7.22;3.03;;;;;;;11.88;66.44;100094.31;4983997;28;20042;-94
2022/11/12 01:38:35;;;;;;;6.80;3.95;;;;;;;11.75;67.44;100069.56;4972697;28;20498;-94
2022/11/12 01:41:01;;;;;;;8.77;4.32;;;;;;;11.67;68.56;100076.78;4985773;28;20106;-94
2022/11/12 01:43:26;;;;;;;7.68;3.90;;;;;;;11.66;68.19;100093.66;4984571;28;20047;-93
2022/11/12 01:45:53;;;;;;;6.15;3.40;;;;;;;11.51;66.39;100055.63;4986886;28;20055;-95
2022/11/12 01:48:25;;;;;;;6.53;3.67;;;;;;;11.47;67.03;100052.97;4985852;28;20553;-93
2022/11/12 01:50:53;;;;;;;5.53;2.80;;;;;;;11.67;64.17;100055.47;4984182;28;20050;-96
2022/11/12 01:53:25;;;;;;;4.45;2.58;;;;;;;11.96;62.44;100041.81;4983936;28;20057;-95
2022/11/12 01:55:52;;;;;;;6.30;2.72;;;;;;;12.11;61.02;100038.97;4984536;28;20047;-94
2022/11/12 01:58:23;;;;;;;4.82;2.40;;;;;;;12.20;60.73;100059.28;4985266;28;20051;-94
2022/11/12 02:00:50;;;;;;;3.80;2.20;;;;;;;12.07;60.58;100034.56;4985487;28;20072;-94
2022/11/12 02:03:19;;;;;;;4.57;2.50;;;;;;;12.14;61.37;100075.34;4986414;28;20082;-94
2022/11/12 02:05:48;;;;;;;3.90;2.40;;;;;;;11.85;62.35;100041.03;4985645;28;20547;-94
2022/11/12 02:08:15;;;;;;;5.03;3.20;;;;;;;11.86;63.40;100061.44;4983746;28;20055;-94
2022/11/12 02:10:42;;;;;;;5.25;3.20;;;;;;;11.71;64.59;100059.88;4984773;28;20047;-94
2022/11/12 02:16:10;;;;;;;5.60;3.40;;;;;;;11.28;65.61;100039.88;5119729;27;20380;-93
2022/11/12 02:18:36;;;;;;;6.22;3.38;;;;;;;11.49;65.39;100077.81;5118791;28;20128;-94
2022/11/12 02:21:06;;;;;;;6.55;3.30;;;;;;;11.29;65.65;100038.06;5119117;28;20064;-95
2022/11/12 02:23:36;;;;;;;5.25;2.80;;;;;;;11.34;64.54;100030.91;5118701;28;20543;-93
2022/11/12 02:26:01;;;;;;;6.13;2.88;;;;;;;11.62;63.62;100063.47;5117373;28;20040;-94
2022/11/12 02:28:30;;;;;;;5.95;3.20;;;;;;;11.41;65.05;100039.75;5118585;28;20100;-95
2022/11/12 02:30:55;;;;;;;6.30;3.50;;;;;;;11.41;66.83;100064.59;5118110;28;20082;-92
2022/11/12 02:33:21;;;;;;;6.30;3.50;;;;;;;11.04;68.18;100050.75;5117811;28;20051;-94
2022/11/12 02:35:47;;;;;;;6.82;3.90;;;;;;;10.90;69.35;100058.81;5132982;28;20520;-93
2022/11/12 02:38:13;;;;;;;7.15;4.25;;;;;;;10.81;69.80;100050.91;5119245;28;20051;-94
2022/11/12 02:40:41;;;;;;;7.20;4.50;;;;;;;10.68;70.46;100055.44;5121873;28;20044;-93
2022/11/12 02:43:06;;;;;;;7.28;3.92;;;;;;;10.84;68.35;100073.06;5117376;28;20393;-93
2022/11/12 02:45:32;;;;;;;4.90;2.97;;;;;;;10.85;67.28;100036.69;5117156;28;20044;-94
2022/11/12 02:47:58;;;;;;;5.30;3.38;;;;;;;10.86;65.98;100027.81;5118535;28;20040;-92
2022/11/12 02:50:24;;;;;;;5.95;3.17;;;;;;;11.21;65.13;100055.91;5116542;28;20077;-92
2022/11/12 02:52:50;;;;;;;15.05;2.58;;;;;;;11.33;63.60;100046.94;5118110;28;20051;-93
2022/11/12 02:55:16;;;;;;;5.63;2.65;;;;;;;11.66;61.44;100048.34;5117016;28;20048;-91
2022/11/12 02:57:49;;;;;;;3.90;2.20;;;;;;;11.78;60.70;100034.91;5117471;28;20185;-94
2022/11/12 03:00:17;;;;;;;3.67;2.25;;;;;;;11.84;60.84;100041.91;5117280;28;20044;-94
2022/11/12 03:02:57;;;;;;;3.80;2.58;;;;;;;11.91;60.89;100028.56;5117265;28;20111;-94
2022/11/12 03:05:24;;;;;;;3.85;2.50;;;;;;;11.87;60.38;100016.13;5116269;28;20071;-93
2022/11/12 03:07:50;;;;;;;4.70;2.78;;;;;;;11.99;59.99;100032.91;5118277;28;20036;-94
2022/11/12 03:10:15;;;;;;;3.80;2.17;;;;;;;12.00;59.27;100014.22;5117950;28;20036;-93
2022/11/12 03:12:43;;;;;;;3.78;2.30;;;;;;;11.95;59.46;100017.84;5116090;28;20181;-91
2022/11/12 03:15:09;;;;;;;3.92;2.35;;;;;;;11.91;60.21;100027.69;5130046;28;20082;-94
2022/11/12 03:17:35;;;;;;;4.30;2.40;;;;;;;11.68;61.48;100017.25;5116650;28;20040;-92
2022/11/12 03:20:01;;;;;;;4.65;2.75;;;;;;;11.54;62.31;100022.75;5117255;28;20043;-95
2022/11/12 03:22:27;;;;;;;5.20;3.20;;;;;;;11.22;63.94;100005.31;5115353;28;20031;-92
2022/11/12 03:24:52;;;;;;;5.07;3.10;;;;;;;11.31;65.00;100033.63;5115284;28;20040;-92
2022/11/12 03:27:18;;;;;;;6.15;3.72;;;;;;;11.06;66.27;100031.19;5101990;28;20051;-93
2022/11/12 03:29:45;;;;;;;5.85;3.45;;;;;;;10.89;67.05;100023.34;5101638;28;20036;-91
2022/11/12 03:32:11;;;;;;;6.05;3.55;;;;;;;10.70;67.70;100005.78;5100887;28;20071;-92
2022/11/12 03:34:37;;;;;;;5.93;3.53;;;;;;;10.84;68.07;100030.50;5101049;28;20036;-93
2022/11/12 03:37:03;;;;;;;4.88;2.95;;;;;;;10.76;67.43;100005.72;5102198;28;20097;-93
2022/11/12 03:39:29;;;;;;;4.65;2.92;;;;;;;10.84;66.54;100005.66;5102134;28;20093;-94
2022/11/12 03:41:54;;;;;;;5.10;3.30;;;;;;;10.91;66.94;100012.69;5100795;28;20043;-92
2022/11/12 03:44:20;;;;;;;6.03;3.78;;;;;;;10.86;67.50;100028.72;5100837;28;20045;-91
2022/11/12 03:46:47;;;;;;;5.22;3.28;;;;;;;10.88;67.49;100041.97;5105806;28;20040;-93
2022/11/12 03:49:13;;;;;;;5.60;3.40;;;;;;;10.72;67.80;100017.28;5092143;28;20036;-93
2022/11/12 03:51:39;;;;;;;6.05;3.10;;;;;;;10.86;66.45;100027.81;5101925;28;20047;-92
2022/11/12 03:54:05;;;;;;;5.28;3.40;;;;;;;10.69;67.50;100011.97;5101716;28;20044;-93
2022/11/12 03:56:31;;;;;;;5.80;3.75;;;;;;;10.58;67.64;100020.06;5099678;28;20562;-94
2022/11/12 03:58:57;;;;;;;5.43;3.00;;;;;;;10.64;66.71;100016.44;5103095;28;20040;-93
2022/11/12 04:01:23;;;;;;;4.63;2.85;;;;;;;10.71;66.30;100015.50;5102243;28;20105;-93
2022/11/12 04:03:50;;;;;;;4.65;3.03;;;;;;;10.92;65.02;100006.47;5101882;28;20520;-93
2022/11/12 04:09:12;;;;;;;4.75;2.58;;;;;;;11.06;64.16;100009.00;5138586;27;20449;-93
2022/11/12 04:11:38;;;;;;;4.57;2.78;;;;;;;11.17;64.05;100006.22;5141129;27;20043;-92
2022/11/12 04:14:04;;;;;;;3.72;2.28;;;;;;;11.19;63.39;100009.75;5152403;27;20073;-93
2022/11/12 04:22:31;;;;;;;4.13;2.08;;;;;;;11.34;62.62;100019.38;5117916;27;20380;-95
2022/11/12 04:27:54;;;;;;;6.50;2.38;;;;;;;11.19;62.73;99989.38;5138729;27;20386;-94
2022/11/12 04:30:20;;;;;;;3.50;2.30;;;;;;;11.34;61.98;99998.09;5137829;27;20052;-95
2022/11/12 04:32:53;;;;;;;4.43;2.40;;;;;;;11.26;62.60;99998.19;5138595;27;20043;-95
2022/11/12 04:35:20;;;;;;;3.42;2.20;;;;;;;11.23;62.43;99979.56;5141279;27;20046;-94
2022/11/12 04:37:47;;;;;;;2.75;2.08;;;;;;;11.23;61.96;99972.47;5124885;27;20063;-95
2022/11/12 04:46:11;;;;;;;3.13;2.10;;;;;;;11.09;63.16;99972.59;5135711;27;20380;-94
2022/11/12 04:48:37;;;;;;;4.15;2.80;;;;;;;10.97;63.55;99966.50;5118652;28;20039;-94
2022/11/12 04:52:03;;;;;;;4.78;2.70;;;;;;;10.81;64.24;99947.16;5118123;28;20562;-94
2022/11/12 04:53:50;;;;;;;4.25;2.58;;;;;;;10.80;63.98;99946.28;5117752;28;20054;-95
2022/11/12 04:56:16;;;;;;;4.70;2.80;;;;;;;10.73;64.45;99947.19;5119151;28;20107;-93
2022/11/12 04:58:42;;;;;;;4.20;2.70;;;;;;;10.74;65.60;99980.03;5120110;28;20111;-94
2022/11/12 05:01:08;;;;;;;5.63;2.90;;;;;;;10.80;65.45;99994.16;5118752;28;20058;-93
2022/11/12 05:03:35;;;;;;;3.80;2.55;;;;;;;10.71;65.12;99974.72;5119251;28;20070;-95
2022/11/12 05:06:01;;;;;;;4.25;2.42;;;;;;;10.73;64.64;99968.47;5116603;28;20063;-92
2022/11/12 05:08:27;;;;;;;4.55;2.80;;;;;;;10.71;65.06;99970.28;5117308;28;20063;-92
2022/11/12 05:10:53;;;;;;;4.30;2.50;;;;;;;10.63;64.71;99950.84;5117100;28;20039;-94
2022/11/12 05:13:19;;;;;;;3.75;2.63;;;;;;;10.80;63.33;99959.56;5128677;28;20040;-93
2022/11/12 05:15:45;;;;;;;3.25;2.25;;;;;;;10.97;62.78;99961.19;5137887;27;20035;-93
2022/11/12 05:18:11;;;;;;;3.60;2.50;;;;;;;11.03;61.87;99942.50;5120464;27;20039;-94
2022/11/12 05:20:38;;;;;;;4.85;2.28;;;;;;;11.15;62.16;99949.50;5118184;28;20173;-94
2022/11/12 05:23:04;;;;;;;4.63;2.40;;;;;;;11.12;61.49;99939.72;5116018;28;20043;-94
2022/11/12 05:25:29;;;;;;;4.38;2.55;;;;;;;11.27;61.82;99954.66;5114443;28;20109;-93
2022/11/12 05:27:55;;;;;;;4.18;2.42;;;;;;;11.07;62.08;99929.13;5115780;28;20055;-93
2022/11/12 05:30:21;;;;;;;5.13;2.72;;;;;;;11.09;62.74;99951.28;5116151;28;20139;-94
2022/11/12 05:32:47;;;;;;;3.25;2.17;;;;;;;10.94;63.45;99924.84;5120810;28;20044;-94
2022/11/12 05:35:13;;;;;;;4.00;2.67;;;;;;;11.03;63.93;99955.81;5117892;28;20040;-94
2022/11/12 05:37:42;;;;;;;4.00;2.45;;;;;;;10.94;63.61;99940.81;5116605;28;20082;-93
2022/11/12 05:40:09;;;;;;;4.72;2.55;;;;;;;10.90;63.52;99931.09;5117408;28;20043;-93
2022/11/12 05:42:34;;;;;;;4.43;2.40;;;;;;;11.02;63.61;99943.41;5118450;28;20043;-95
2022/11/12 05:45:03;;;;;;;4.25;2.70;;;;;;;11.04;64.17;99960.25;5118215;28;20454;-94
2022/11/12 05:47:29;;;;;;;4.10;2.55;;;;;;;10.80;64.13;99940.03;5117889;28;20460;-93
2022/11/12 05:49:55;;;;;;;5.00;2.75;;;;;;;10.89;64.10;99956.81;5117087;28;20067;-95
2022/11/12 05:52:21;;;;;;;4.25;2.38;;;;;;;10.73;64.60;99933.03;5118254;28;20048;-93
2022/11/12 05:54:48;;;;;;;3.85;2.42;;;;;;;10.69;64.80;99937.47;5118121;28;20043;-94
2022/11/12 05:57:14;;;;;;;4.78;2.40;;;;;;;10.66;64.83;99930.41;5105265;28;20048;-93
2022/11/12 05:59:40;;;;;;;4.85;2.65;;;;;;;10.66;65.36;99938.38;5103586;28;20093;-93
2022/11/12 06:02:06;;;;;;;6.13;2.80;;;;;;;10.75;64.26;99944.53;5103257;28;20044;-94
2022/11/12 06:04:31;;;;;;;5.05;2.70;;;;;;;10.98;64.04;99961.19;5106267;28;20092;-93
2022/11/12 06:06:57;;;;;;;5.35;2.83;;;;;;;10.86;63.89;99930.25;5100924;28;20040;-91
2022/11/12 06:09:23;;;;;;;4.85;2.22;;;;;;;11.13;63.07;99956.59;5109258;28;20523;-93
2022/11/12 06:11:50;;;;;;;3.60;2.20;;;;;;;11.03;62.47;99924.72;5101603;28;20047;-94
2022/11/12 06:14:16;;;;;;;4.55;2.40;;;;;;;11.16;63.13;99936.13;5107744;28;20036;-94
2022/11/12 06:16:42;;;;;;;6.50;2.50;;;;;;;11.16;62.76;99938.81;5101344;28;20036;-94
2022/11/12 06:19:08;;;;;;;4.60;2.35;;;;;;;11.25;63.10;99957.31;5101578;28;20094;-95
2022/11/12 06:21:33;;;;;;;3.90;2.50;;;;;;;11.12;62.52;99939.72;5098680;28;20483;-94
2022/11/12 06:23:59;;;;;;;7.05;3.40;;;;;;;11.22;62.18;99932.53;5099599;28;20044;-93
2022/11/12 06:26:27;;;;;;;3.97;2.47;;;;;;;11.37;62.49;99940.34;5099503;28;20036;-94
2022/11/12 06:28:55;;;;;;;3.78;2.20;;;;;;;11.40;61.35;99923.44;5101315;28;20052;-92
2022/11/12 06:31:22;;;;;;;3.80;2.40;;;;;;;11.49;61.17;99926.00;5104558;28;21420;-94
2022/11/12 06:33:48;;;;;;;6.00;2.67;;;;;;;11.43;61.19;99918.09;5099631;28;20481;-92
2022/11/12 06:36:16;;;;;;;3.08;2.30;;;;;;;11.50;61.75;99941.09;5101589;28;20105;-94
2022/11/12 06:38:42;;;;;;;4.40;2.50;;;;;;;11.40;62.16;99937.63;5099907;28;20040;-93
2022/11/12 06:41:09;;;;;;;4.88;2.30;;;;;;;11.40;61.93;99923.44;5100285;28;20531;-92
2022/11/12 06:43:36;;;;;;;3.60;2.40;;;;;;;11.45;62.40;99940.25;5100505;28;20079;-94
2022/11/12 06:46:06;;;;;;;3.83;2.33;;;;;;;11.38;62.54;99928.78;5102574;28;20147;-94
2022/11/12 06:48:32;;;;;;;4.10;2.40;;;;;;;11.32;62.88;99910.25;5103217;28;20497;-94
2022/11/12 06:51:05;;;;;;;3.65;2.05;;;;;;;11.29;62.87;99911.13;5104097;28;20097;-95
2022/11/12 06:53:31;;;;;;;5.45;2.25;;;;;;;11.28;62.90;99912.03;5103134;28;20048;-93
2022/11/12 06:56:01;;;;;;;3.53;2.35;;;;;;;11.31;62.94;99924.44;5102861;28;20044;-95
2022/11/12 06:58:27;;;;;;;3.20;2.13;;;;;;;11.39;62.58;99921.69;5104283;28;20393;-95
2022/11/12 07:00:53;;;;;;;3.45;2.20;;;;;;;11.33;63.08;99911.13;5104589;28;20044;-95
2022/11/12 07:03:20;;;;;;;4.55;2.63;;;;;;;11.44;61.98;99927.84;5101843;28;20036;-94
2022/11/12 07:05:46;;;;;;;3.92;2.20;;;;;;;11.43;61.37;99902.13;5101381;28;20044;-91
2022/11/12 07:08:12;;;;;;;4.80;2.30;;;;;;;11.62;60.56;99900.09;5100189;28;20070;-94
2022/11/12 07:10:37;;;;;;;3.80;2.22;;;;;;;11.93;60.17;99908.59;5100290;28;20196;-92
2022/11/12 07:13:03;;;;;;;4.15;2.40;;;;;;;12.16;59.11;99918.03;5101450;28;20089;-94
2022/11/12 07:15:29;;;;;;;4.10;2.30;;;;;;;12.16;58.72;99907.34;5102733;28;20075;-93
2022/11/12 07:17:55;;;;;;;3.45;2.25;;;;;;;12.24;58.63;99908.13;5103018;28;20495;-93
2022/11/12 07:20:22;;;;;;;3.17;2.17;;;;;;;12.33;58.73;99929.31;5102608;28;20048;-94
2022/11/12 07:22:48;;;;;;;3.80;2.30;;;;;;;12.27;58.61;99924.97;5100292;28;20047;-93
2022/11/12 07:25:14;;;;;;;4.18;2.30;;;;;;;12.35;58.84;99926.63;5100899;28;20044;-93
2022/11/12 07:27:40;;;;;;;3.45;2.17;;;;;;;12.28;58.61;99905.38;5101160;28;20530;-95
2022/11/12 07:30:07;;;;;;;5.03;2.50;;;;;;;12.40;58.85;99932.75;5102758;28;20047;-93
2022/11/12 07:32:33;;;;;;;4.20;2.25;;;;;;;12.44;59.16;99931.81;5101802;28;20048;-94
2022/11/12 07:34:59;;;;;;;3.78;2.47;;;;;;;12.37;58.66;99909.69;5100607;28;20040;-93
2022/11/12 07:37:26;;;;;;;3.45;2.10;;;;;;;12.49;57.95;99913.94;5106633;28;20057;-94
2022/11/12 07:39:52;;;;;;;3.47;2.17;;;;;;;12.49;58.24;99905.91;5118085;28;20050;-93
2022/11/12 07:42:18;;;;;;;3.60;2.20;;;;;;;12.60;57.01;99906.66;5101701;28;20110;-94
2022/11/12 07:44:44;;;;;;;3.58;2.25;;;;;;;12.75;56.89;99926.81;5098419;28;20036;-93
2022/11/12 07:47:10;;;;;;;3.58;2.15;;;;;;;12.87;56.65;99939.09;5101812;28;20046;-94
2022/11/12 07:49:36;;;;;;;3.05;2.00;;;;;;;12.89;56.60;99922.13;5100154;28;20126;-95
2022/11/12 07:52:03;;;;;;;3.97;2.10;;;;;;;12.91;56.39;99911.44;5098937;28;20438;-94
2022/11/12 07:54:30;;;;;;;2.67;1.80;;;;;;;13.07;55.72;99912.91;5098256;28;20109;-95
2022/11/12 07:56:56;;;;;;;5.25;2.40;;;;;;;12.94;56.17;99906.91;5098916;28;20051;-93
2022/11/12 07:59:22;;;;;;;3.30;2.00;;;;;;;12.99;55.97;99901.50;5098605;28;20048;-94
2022/11/12 08:01:47;;;;;;;2.78;1.77;;;;;;;13.17;56.22;99929.63;5099542;28;20101;-94
2022/11/12 08:04:13;;;;;;;3.25;1.90;;;;;;;13.14;56.33;99917.22;5100031;28;20580;-94
2022/11/12 08:06:39;;;;;;;4.65;1.95;;;;;;;13.07;56.26;99912.03;5102318;28;20048;-94
2022/11/12 08:09:07;;;;;;;3.08;1.88;;;;;;;13.16;56.31;99909.16;5103809;28;20060;-95
2022/11/12 08:11:34;;;;;;;3.50;2.05;;;;;;;13.18;57.11;99942.06;5093591;28;20047;-94
2022/11/12 08:14:01;;;;;;;4.35;2.20;;;;;;;13.04;57.10;99925.44;5098433;28;20550;-96
2022/11/12 08:16:27;;;;;;;2.47;1.95;;;;;;;13.10;56.30;99914.66;5102618;28;20092;-95
2022/11/12 08:18:53;;;;;;;3.25;2.20;;;;;;;13.03;56.78;99927.22;5097858;28;20048;-92
2022/11/12 08:21:19;;;;;;;3.88;2.08;;;;;;;13.04;57.24;99920.97;5098443;28;20574;-95
2022/11/12 08:23:45;;;;;;;3.58;2.00;;;;;;;12.98;57.51;99917.53;5100808;28;20040;-95
2022/11/12 08:26:13;;;;;;;3.60;2.00;;;;;;;13.02;57.62;99927.25;5100196;28;20040;-93
2022/11/12 08:28:41;;;;;;;3.40;2.22;;;;;;;12.90;57.96;99904.31;5106538;28;20044;-96
2022/11/12 08:31:10;;;;;;;3.47;2.10;;;;;;;12.85;58.11;99907.09;5102030;28;20602;-95
2022/11/12 08:33:36;;;;;;;5.20;2.50;;;;;;;12.82;58.01;99914.28;5101353;28;20062;-95
2022/11/12 08:36:03;;;;;;;3.45;2.13;;;;;;;12.66;58.46;99901.19;5099954;28;20100;-94
2022/11/12 08:38:29;;;;;;;3.67;2.53;;;;;;;12.68;58.95;99914.50;5096145;28;20515;-94
2022/11/12 08:40:58;;;;;;;4.35;2.40;;;;;;;12.66;58.19;99905.66;5096358;28;20063;-94
2022/11/12 08:43:24;;;;;;;4.03;2.20;;;;;;;12.68;58.54;99903.84;5098636;28;20036;-94
2022/11/12 08:45:51;;;;;;;5.68;2.33;;;;;;;12.67;58.19;99910.97;5095027;28;20040;-93
2022/11/12 08:48:17;;;;;;;3.80;2.40;;;;;;;12.67;58.52;99899.41;5095789;28;20044;-96
2022/11/12 08:50:42;;;;;;;5.38;2.47;;;;;;;12.78;58.21;99924.13;5095551;28;20050;-94
2022/11/12 08:53:10;;;;;;;5.13;2.45;;;;;;;12.66;57.70;99893.16;5096344;28;20090;-95
2022/11/12 08:55:36;;;;;;;4.80;2.30;;;;;;;12.71;57.69;99896.66;5096394;28;20123;-96
2022/11/12 08:58:03;;;;;;;6.30;2.65;;;;;;;12.84;57.73;99915.13;5095588;28;20098;-95
2022/11/12 09:00:30;;;;;;;4.18;2.47;;;;;;;12.74;57.66;99893.94;5095762;28;20048;-95
2022/11/12 09:02:58;;;;;;;3.03;2.20;;;;;;;12.87;57.18;99889.25;5096176;28;20045;-95
2022/11/12 09:05:24;;;;;;;3.55;2.05;;;;;;;12.86;56.95;99887.50;5095959;28;20074;-95
2022/11/12 09:07:56;;;;;;;3.63;2.40;;;;;;;12.85;57.29;99882.19;5096146;28;20052;-94
2022/11/12 09:10:23;;;;;;;3.85;2.28;;;;;;;12.99;56.19;99885.47;5082147;28;20028;-96
2022/11/12 09:12:50;;;;;;;3.83;2.25;;;;;;;13.05;56.39;99882.66;5097504;28;20456;-95
2022/11/12 09:15:16;;;;;;;3.80;2.25;;;;;;;13.06;55.50;99899.59;5098893;28;20044;-95
2022/11/12 09:17:41;;;;;;;4.05;2.40;;;;;;;13.15;55.87;99907.41;5097406;28;20040;-95
2022/11/12 09:20:09;;;;;;;4.05;2.40;;;;;;;13.03;56.28;99891.63;5098136;28;20097;-95
2022/11/12 09:22:35;;;;;;;3.40;2.20;;;;;;;12.89;56.50;99892.78;5097338;28;20047;-95
2022/11/12 09:25:01;;;;;;;4.85;2.33;;;;;;;12.90;56.86;99909.66;5096986;28;20574;-94
2022/11/12 09:27:27;;;;;;;5.80;2.20;;;;;;;12.90;57.46;99915.91;5101682;28;20048;-96
2022/11/12 09:29:53;;;;;;;4.60;2.20;;;;;;;12.84;57.40;99915.13;5100404;28;20052;-95
2022/11/12 09:32:19;;;;;;;3.88;2.30;;;;;;;12.93;57.20;99937.19;5101800;28;20044;-93
2022/11/12 09:34:45;;;;;;;4.70;2.20;;;;;;;12.91;57.33;99927.47;5101021;28;20040;-95
2022/11/12 09:37:12;;;;;;;5.70;2.10;;;;;;;12.89;56.73;99907.91;5100871;28;20041;-96
2022/11/12 09:39:38;;;;;;;4.13;2.05;;;;;;;12.99;56.22;99903.28;5103429;28;20104;-94
2022/11/12 09:42:06;;;;;;;4.20;2.33;;;;;;;12.99;55.50;99889.91;5100756;28;20067;-95
2022/11/12 09:44:36;;;;;;;3.45;2.20;;;;;;;13.25;55.14;99913.44;5101004;28;20050;-96
2022/11/12 09:47:08;;;;;;;5.90;2.40;;;;;;;13.27;54.99;99906.28;5100935;28;20043;-96
2022/11/12 09:49:39;;;;;;;3.80;2.30;;;;;;;13.25;54.92;99895.66;5102654;28;20134;-96
2022/11/12 09:52:13;;;;;;;4.20;2.13;;;;;;;13.32;54.69;99894.66;5101843;28;20044;-95
2022/11/12 09:54:41;;;;;;;3.83;2.10;;;;;;;13.63;54.05;99923.41;5103100;28;20040;-94
2022/11/12 09:57:10;;;;;;;3.67;2.05;;;;;;;13.44;54.02;99897.97;5080784;28;20068;-92
2022/11/12 09:59:49;;;;;;;4.40;2.30;;;;;;;13.47;53.16;99880.09;5082220;28;20036;-95
2022/11/12 10:02:26;;;;;;;3.78;2.45;;;;;;;13.54;53.66;99880.84;5097216;28;20493;-96
2022/11/12 10:05:02;;;;;;;3.05;2.08;;;;;;;13.59;52.31;99873.59;5102262;28;20040;-96
2022/11/12 10:07:40;;;;;;;2.70;2.10;;;;;;;13.68;52.48;99881.41;5102723;28;20044;-96
2022/11/12 10:10:14;;;;;;;4.27;2.10;;;;;;;13.76;52.11;99882.13;5099478;28;20118;-95
2022/11/12 10:12:58;;;;;;;3.83;2.10;;;;;;;13.82;51.91;99885.59;5100378;28;20055;-96
2022/11/12 10:19:08;;;;;;;3.08;1.98;;;;;;;13.89;51.71;99893.41;5169702;27;20368;-94
2022/11/12 10:21:40;;;;;;;2.80;2.00;;;;;;;13.87;52.21;99894.38;5136339;27;20043;-94
2022/11/12 10:24:08;;;;;;;3.40;2.17;;;;;;;13.89;51.90;99900.56;5135825;27;20129;-95
2022/11/12 10:26:36;;;;;;;5.35;2.42;;;;;;;13.85;51.68;99869.47;5136617;27;20528;-95
2022/11/12 10:29:21;;;;;;;3.97;2.20;;;;;;;13.93;52.26;99878.19;5136515;27;20051;-95
2022/11/12 10:31:47;;;;;;;4.28;2.20;;;;;;;14.05;52.17;99877.03;5136387;27;20071;-95
2022/11/12 10:34:18;;;;;;;4.82;2.38;;;;;;;14.11;51.66;99868.84;5134686;27;20050;-95
2022/11/12 10:36:47;;;;;;;4.03;2.30;;;;;;;14.34;51.00;99858.47;5138007;27;20035;-96
2022/11/12 10:39:35;;;;;;;3.92;2.38;;;;;;;14.44;51.01;99869.81;5135151;27;20092;-96
2022/11/12 10:42:04;;;;;;;4.75;2.50;;;;;;;14.64;50.42;99861.34;5135468;28;20047;-95
2022/11/12 10:44:30;;;;;;;4.03;2.22;;;;;;;14.66;49.98;99848.78;5136335;28;20047;-96
2022/11/12 10:47:21;;;;;;;4.88;2.90;;;;;;;14.65;49.81;99833.63;5136081;28;20050;-96
2022/11/12 10:50:04;;;;;;;4.40;2.33;;;;;;;14.77;49.72;99821.72;5137232;27;20054;-95
2022/11/12 10:52:30;;;;;;;4.10;2.25;;;;;;;14.83;49.38;99831.38;5134960;27;20040;-96
2022/11/12 10:55:05;;;;;;;2.83;2.00;;;;;;;14.68;49.08;99805.88;5135564;27;20040;-96
2022/11/12 10:57:31;;;;;;;3.80;1.98;;;;;;;14.86;48.36;99805.38;5126987;28;20040;-94
2022/11/12 11:00:06;;;;;;;3.15;2.00;;;;;;;15.01;48.95;99788.00;5135174;28;20050;-96
2022/11/12 11:02:33;;;;;;;3.28;1.95;;;;;;;15.07;48.17;99822.66;5133802;27;20571;-93
2022/11/12 11:05:26;;;;;;;3.28;2.13;;;;;;;15.22;48.56;99825.81;5133671;27;20039;-95
2022/11/12 11:07:52;;;;;;;3.17;2.17;;;;;;;15.38;48.20;99830.69;5134331;27;20404;-96
2022/11/12 11:10:23;;;;;;;3.17;2.25;;;;;;;15.28;48.02;99804.19;5134183;27;20043;-95
2022/11/12 11:13:07;;;;;;;3.60;1.95;;;;;;;15.26;48.97;99825.66;5133287;27;20039;-95
2022/11/12 11:15:33;;;;;;;3.22;1.77;;;;;;;15.30;47.44;99810.38;5133912;27;20040;-95
2022/11/12 11:17:59;;;;;;;4.05;1.98;;;;;;;15.33;46.88;99824.59;5133723;27;20046;-93
2022/11/12 11:20:35;;;;;;;2.78;1.70;;;;;;;15.53;46.56;99831.16;5134134;27;20458;-96
2022/11/12 11:23:05;;;;;;;2.38;1.80;;;;;;;15.33;47.50;99823.69;5132877;27;20035;-95
2022/11/12 11:25:34;;;;;;;2.65;1.70;;;;;;;15.52;49.19;99824.03;5133762;27;20698;-96
2022/11/12 11:28:16;;;;;;;3.55;2.33;;;;;;;15.28;48.31;99799.69;5130641;27;20465;-95
2022/11/12 11:30:53;;;;;;;4.10;1.90;;;;;;;15.43;47.40;99792.13;5119301;28;20104;-96
2022/11/12 11:33:29;;;;;;;4.50;2.03;;;;;;;15.52;48.60;99797.22;5118330;28;20114;-94
2022/11/12 11:36:11;;;;;;;3.53;2.20;;;;;;;15.50;49.10;99791.00;5118506;28;20052;-95
2022/11/12 11:38:48;;;;;;;3.45;2.20;;;;;;;15.39;48.29;99794.91;5119423;28;20035;-94
2022/11/12 11:41:30;;;;;;;3.80;2.00;;;;;;;15.56;48.70;99798.88;5118323;27;20052;-94
2022/11/12 11:44:05;;;;;;;3.75;2.08;;;;;;;15.76;49.11;99787.53;5117991;28;20063;-94
2022/11/12 11:46:47;;;;;;;9.60;5.47;;;;;;;15.68;49.42;99777.06;5118128;28;20035;-94
2022/11/12 11:49:48;;;;;;;6.82;3.60;;;;;;;15.78;48.69;99751.69;5119631;28;20039;-96
2022/11/12 11:52:32;;;;;;;3.30;2.15;;;;;;;15.59;48.77;99763.91;5121694;28;20065;-96
2022/11/12 11:55:12;;;;;;;3.50;2.25;;;;;;;15.83;48.96;99756.94;5119209;28;20093;-96
2022/11/12 11:57:47;;;;;;;4.03;2.40;;;;;;;15.78;48.55;99740.97;5121000;28;20393;-96